events-overview

Kinetic Half

 

Overall Women

4/22/2006 09:00PM

** Results are for the private use of participants and are the Intellectual Property of Set Up Events. Unauthorized use of these results is prohibited.

Place Bib Age NAME CITY/STATE Rank SWIM Rank T1 Rank BIKE Rank T2 Rank RUN PENALTY TIME DQ
110220CATHERINE HOGANBEDFORD, QUÉBEC, CAN400:27:54100:00:44102:37:32500:01:16101:33:04 04:40:27 
29639HOPE HALLRESTON VA800:32:54700:01:50302:42:31900:01:33301:34:50 04:53:35 
39037JULIE GIBBONSFAIRFAX VA1100:35:10500:01:31502:43:50600:01:16901:46:15 05:08:01 
41842MARGARET BISHOPMIDDLEBURG VA3100:41:432300:02:57202:42:242300:02:20501:40:12 05:09:34 
58641KAREN FRALENSTAFFORD VA900:33:091500:02:14402:43:211500:01:551101:49:51 05:10:28 
619434MARIE SANDROCKALEXANDRIA VA3600:43:10900:01:581002:51:111000:01:36201:34:43 05:12:36 
726537JULIE DUKESPASADENA MD1400:37:25600:01:471202:54:10800:01:29401:39:49 05:14:39 
816334AMY MCKEEWASHINGTON DC1700:37:461900:02:43802:49:432900:02:44801:43:10 05:16:05 
913727JULIE LESTYANVA BEACH VA100:27:02300:01:06602:44:58200:01:082202:03:36 05:17:49 
1013332ELVY LAPOINTESTELIED''ORFORD2300:38:58400:01:221702:59:17300:01:11601:40:23 05:21:09 
1112925ADRIANNE KROEPSCHWASHINGTON DC1800:37:552400:02:581502:55:312400:02:21701:43:06 05:21:49 
1222334SHANNON SUMMERLINROANOKE VA300:27:44200:01:012103:05:58400:01:111001:46:33 05:22:25 
13244RENEE ADAMSMANASSAS VA1300:36:322900:03:20702:46:583200:02:521902:02:14 05:31:54 
1418842LAURA PRUSSINBLACKSBURG VA700:32:142200:02:561903:03:17100:01:051501:56:44 05:36:14 
15536KRISTEN ASTORWASHINGTON DC2100:38:413700:04:03902:50:531400:01:511802:01:37 05:37:04 
1614132JODY LOGARELKINS WV4200:45:262500:03:022003:05:241300:01:471201:50:21 05:45:58 
1716236JEAN MCGINLEYARLINGTON VA2900:40:454400:05:291302:54:424000:04:471702:00:25 05:46:06 
1824328KATY WALTERSVIRGINIA BEACH VA1000:34:361700:02:321402:55:272600:02:272702:12:30 05:47:30 
1919039SANDRA RODGERSFAIRFAX VA2700:40:232600:03:072203:06:182200:02:171301:53:4500:04:0005:49:48 
204430SARA CISLERBLACKLICK OH1600:37:271400:02:123003:12:28700:01:251601:57:53 05:51:24 
219238PAMELA GOODMANHERNDON VA3300:41:51800:01:542903:12:023000:02:441401:55:34 05:54:02 
228949JANET GATESSMITHFIELD PA2200:38:483200:03:402403:07:462500:02:262102:03:10 05:55:48 
239742MARY ELLEN HASELDENSTAFFORD VA2600:39:411100:02:083103:12:371600:01:572002:02:28 05:58:49 
2414234KARYN LONGAPEX NC3000:41:292700:03:091602:55:442000:02:153102:17:09 05:59:43 
2510120JESSICA HICKSGRANITE CITY IL1900:38:002000:02:483203:13:042100:02:152302:03:54 05:59:59 
2621441STEPHANIE SMITHRALEIGH NC2400:39:181600:02:271803:01:301900:02:133202:19:09 06:04:35 
2720833CARO SHULLARLINGTON VA1500:37:271300:02:112603:09:401100:01:413002:16:19 06:07:16 
283730APRIL CANNONSHELBY NC3400:41:592800:03:093303:13:053100:02:502502:06:2000:04:0006:11:21 
29426EMILY ARCHIBALDCHAPEL HILL NC3200:41:493300:03:483403:14:233300:02:532602:08:50 06:11:41 
301636KAREN BERNHARDRICHMOND VA3500:42:403100:03:282803:11:393800:04:062902:15:05 06:16:55 
PlaceBibAgeNAMECITY/STATERankSWIMRankT1RankBIKERankT2RankRUNPENALTYTIMEDQ
317021DARYL DAWSONANNAPOLIS MD2500:39:193000:03:234003:28:193400:03:092402:04:36 06:18:46 
3224846JANE WEISEMANBLACKSBURG, VA2800:40:273500:03:572503:08:451700:02:033702:28:13 06:23:23 
3318030CLAIR PARRISHRICHMOND VA3900:43:483800:04:083903:24:373900:04:312802:13:14 06:30:17 
343239PAM BURTONCONCORD NC4000:44:354200:04:513803:20:363500:03:133302:23:23 06:36:35 
3525826PUI MUNG WONGARLINGTON VA4300:47:471200:02:093703:19:381200:01:453502:26:29 06:37:45 
3616533MONIQUE MEANSWASHINGTON DC3700:43:154300:05:073503:16:214200:06:504002:40:10 06:51:41 
3714430STACEY LONGALEXANDRIA VA3800:43:234500:05:563603:16:244100:05:523902:40:08 06:51:41 
3816828JESSICA MITCHELLALBANY NY4600:53:284000:04:254203:29:123600:03:303602:27:58 06:58:31 
3910737JOANNA IP DURIEARLINGTON VA4100:44:362100:02:504403:51:091800:02:123402:25:39 07:06:24 
4021025ALISON SMITHBETHESDA MD4500:51:183400:03:504103:28:532700:02:374102:54:00 07:20:37 
4117324KATI MUDDMONTGOMERY VILLAGE MD2000:38:383600:04:014503:57:473700:03:383802:39:34 07:23:35 
4210037JOAN HEINZECHARLOTTE HALL MD4400:50:344100:04:324303:48:242800:02:43     
433340BETSY BUTLERFREDERICKSBURG VA500:28:561000:01:591102:52:40       
446928KATHLEEN DAVISONRESTON VA600:29:073900:04:242303:06:36       
4516724SHANNON MINGOBETHESDA MD200:27:071800:02:382703:09:50       
4617928MARIANA PARGANAWASHINGTON DC1200:35:36           

** Results are for the private use of participants and are the Intellectual Property of Set Up Events. Unauthorized use of these results is prohibited.